createdAt,value
2017-09-19T00:00:28.106Z,14.00
2017-09-19T00:02:54.440Z,13.03
2017-09-19T00:05:20.704Z,13.80
2017-09-19T00:07:48.085Z,14.03
2017-09-19T00:10:14.372Z,14.23
2017-09-19T00:12:40.688Z,14.10
2017-09-19T00:15:07.129Z,13.60
2017-09-19T00:17:33.397Z,16.63
2017-09-19T00:20:00.354Z,16.43
2017-09-19T00:22:26.679Z,13.10
2017-09-19T00:24:53.651Z,13.27
2017-09-19T00:27:19.917Z,12.60
2017-09-19T00:29:46.231Z,15.13
2017-09-19T00:32:12.513Z,15.13
2017-09-19T00:34:39.559Z,15.30
2017-09-19T00:37:05.989Z,17.07
2017-09-19T00:39:33.075Z,16.50
2017-09-19T00:41:59.316Z,16.90
2017-09-19T00:44:25.658Z,15.87
2017-09-19T00:46:51.993Z,17.60
2017-09-19T00:49:18.200Z,18.10
2017-09-19T00:51:44.620Z,16.73
2017-09-19T00:54:10.911Z,16.07
2017-09-19T00:56:37.191Z,15.80
2017-09-19T00:59:03.510Z,16.17
2017-09-19T01:01:29.825Z,15.27
2017-09-19T01:03:56.193Z,14.10
2017-09-19T01:06:22.439Z,14.43
2017-09-19T01:08:48.702Z,13.53
2017-09-19T01:11:15.780Z,13.10
2017-09-19T01:13:42.012Z,12.20
2017-09-19T01:16:08.350Z,14.10
2017-09-19T01:18:35.262Z,15.67
2017-09-19T01:21:02.353Z,14.83
2017-09-19T01:23:28.619Z,16.80
2017-09-19T01:25:54.939Z,16.77
2017-09-19T01:28:21.265Z,17.63
2017-09-19T01:30:47.620Z,16.07
2017-09-19T01:33:14.662Z,16.17
2017-09-19T01:35:40.929Z,15.37
2017-09-19T01:38:07.238Z,16.17
2017-09-19T01:40:34.269Z,13.50
2017-09-19T01:43:00.616Z,14.30
2017-09-19T01:45:27.632Z,14.53
2017-09-19T01:47:53.953Z,13.60
2017-09-19T01:50:20.315Z,14.00
2017-09-19T01:52:46.553Z,16.20
2017-09-19T01:55:13.574Z,14.33
2017-09-19T01:57:39.984Z,13.97
2017-09-19T02:00:06.256Z,13.73
2017-09-19T02:02:32.572Z,14.37
2017-09-19T02:04:58.885Z,12.80
2017-09-19T02:07:25.171Z,14.93
2017-09-19T02:09:52.202Z,14.10
2017-09-19T02:12:18.454Z,12.83
2017-09-19T02:14:45.437Z,14.63
2017-09-19T02:17:11.724Z,15.53
2017-09-19T02:19:38.734Z,14.90
2017-09-19T02:22:05.006Z,13.53
2017-09-19T02:24:31.969Z,14.57
2017-09-19T02:26:58.237Z,13.27
2017-09-19T02:29:24.479Z,13.23
2017-09-19T02:31:50.859Z,13.57
2017-09-19T02:34:17.222Z,13.53
2017-09-19T02:36:43.509Z,12.43
2017-09-19T02:39:09.820Z,13.30
2017-09-19T02:41:36.883Z,14.30
2017-09-19T02:44:03.154Z,14.80
2017-09-19T02:46:29.448Z,14.43
2017-09-19T02:48:55.774Z,16.07
2017-09-19T02:51:22.813Z,17.73
2017-09-19T02:53:49.831Z,16.03
2017-09-19T02:56:16.182Z,19.30
2017-09-19T02:58:43.247Z,21.30
2017-09-19T03:01:09.633Z,17.90
2017-09-19T03:03:35.930Z,22.67
2017-09-19T03:06:02.291Z,26.47
2017-09-19T03:08:28.592Z,40.17
2017-09-19T03:10:54.894Z,24.40
2017-09-19T03:13:21.234Z,20.60
2017-09-19T03:15:48.267Z,25.63
2017-09-19T03:18:14.663Z,16.60
2017-09-19T03:20:40.946Z,15.10
2017-09-19T03:23:07.963Z,19.47
2017-09-19T03:25:34.276Z,29.67
2017-09-19T03:28:00.555Z,35.87
2017-09-19T03:30:27.644Z,29.70
2017-09-19T03:32:53.952Z,29.70
2017-09-19T03:35:20.370Z,29.90
2017-09-19T03:37:46.655Z,24.00
2017-09-19T03:40:13.003Z,23.90
2017-09-19T03:42:39.321Z,23.50
2017-09-19T03:45:05.628Z,26.73
2017-09-19T03:47:32.071Z,28.90
2017-09-19T03:49:58.430Z,25.73
2017-09-19T03:52:24.745Z,23.80
2017-09-19T03:54:51.003Z,22.30
2017-09-19T03:57:17.487Z,21.40
2017-09-19T03:59:43.774Z,19.07
2017-09-19T04:02:10.132Z,21.10
2017-09-19T04:04:36.450Z,22.73
2017-09-19T04:07:03.607Z,22.30
2017-09-19T04:09:30.032Z,22.70
2017-09-19T04:11:56.345Z,21.23
2017-09-19T04:14:22.580Z,19.73
2017-09-19T04:16:48.955Z,22.63
2017-09-19T04:19:15.524Z,22.80
2017-09-19T04:21:41.858Z,22.97
2017-09-19T04:24:08.122Z,26.87
2017-09-19T04:26:35.226Z,25.00
2017-09-19T04:29:01.505Z,25.67
2017-09-19T04:31:28.544Z,23.40
2017-09-19T04:33:55.630Z,27.87
2017-09-19T04:36:21.900Z,24.53
2017-09-19T04:38:48.226Z,23.57
2017-09-19T04:41:14.524Z,20.90
2017-09-19T04:43:40.940Z,21.80
2017-09-19T04:46:07.276Z,25.13
2017-09-19T04:48:33.542Z,25.80
2017-09-19T04:50:59.838Z,26.43
2017-09-19T04:53:26.136Z,24.57
2017-09-19T04:55:53.155Z,24.97
2017-09-19T04:58:19.443Z,24.03
2017-09-19T05:00:45.723Z,25.67
2017-09-19T05:03:12.062Z,27.63
2017-09-19T05:05:38.320Z,24.07
2017-09-19T05:08:05.378Z,28.70
2017-09-19T05:10:31.670Z,22.00
2017-09-19T05:12:58.019Z,21.00
2017-09-19T05:15:25.175Z,21.73
2017-09-19T05:17:52.225Z,19.33
2017-09-19T05:20:19.238Z,18.27
2017-09-19T05:22:45.629Z,19.43
2017-09-19T05:25:11.880Z,17.97
2017-09-19T05:27:38.229Z,18.63
2017-09-19T05:30:04.606Z,19.33
2017-09-19T05:32:31.657Z,24.17
2017-09-19T05:34:58.088Z,21.60
2017-09-19T05:37:25.149Z,23.27
2017-09-19T05:39:51.539Z,24.40
2017-09-19T05:42:17.872Z,24.83
2017-09-19T05:44:44.164Z,28.20
2017-09-19T05:47:10.619Z,28.27
2017-09-19T05:49:36.893Z,28.20
2017-09-19T05:52:03.250Z,28.80
2017-09-19T05:54:29.535Z,27.73
2017-09-19T05:56:56.611Z,26.90
2017-09-19T05:59:23.881Z,25.97
2017-09-19T06:01:50.221Z,29.27
2017-09-19T06:04:16.496Z,25.77
2017-09-19T06:06:42.820Z,26.50
2017-09-19T06:09:21.148Z,26.33
2017-09-19T06:11:48.176Z,28.13
2017-09-19T06:14:14.462Z,27.97
2017-09-19T06:16:40.742Z,29.00
2017-09-19T06:19:07.496Z,26.60
2017-09-19T06:21:33.796Z,24.03
2017-09-19T06:24:00.133Z,26.77
2017-09-19T06:26:26.415Z,34.97
2017-09-19T06:28:52.771Z,36.10
2017-09-19T06:31:19.043Z,37.50
2017-09-19T06:33:45.327Z,34.30
2017-09-19T06:36:11.723Z,35.23
2017-09-19T06:38:38.822Z,25.20
2017-09-19T06:41:05.192Z,35.73
2017-09-19T06:43:31.528Z,196.10
2017-09-19T06:45:58.559Z,24.40
2017-09-19T06:48:24.877Z,21.07
2017-09-19T06:50:51.183Z,24.40
2017-09-19T06:53:17.522Z,31.63
2017-09-19T06:55:43.827Z,27.87
2017-09-19T06:58:10.123Z,32.33
2017-09-19T07:00:36.482Z,33.50
2017-09-19T07:03:02.899Z,31.23
2017-09-19T07:05:29.905Z,34.83
2017-09-19T07:07:56.248Z,29.53
2017-09-19T07:10:22.627Z,22.83
2017-09-19T07:12:49.723Z,19.40
2017-09-19T07:15:15.989Z,21.23
2017-09-19T07:17:42.215Z,20.03
2017-09-19T07:20:08.513Z,21.13
2017-09-19T07:22:35.150Z,18.03
2017-09-19T07:25:01.573Z,13.70
2017-09-19T07:27:27.777Z,17.70
2017-09-19T07:29:54.749Z,13.50
2017-09-19T07:32:21.069Z,10.50
2017-09-19T07:34:47.304Z,10.03
2017-09-19T07:37:13.663Z,6.37
2017-09-19T07:39:39.948Z,7.70
2017-09-19T07:42:06.242Z,5.80
2017-09-19T07:44:32.503Z,4.30
2017-09-19T07:46:58.778Z,4.30
2017-09-19T07:49:25.068Z,3.40
2017-09-19T07:51:51.409Z,3.50
2017-09-19T07:54:17.611Z,2.70
2017-09-19T07:56:44.656Z,3.07
2017-09-19T07:59:10.885Z,2.20
2017-09-19T08:01:37.903Z,3.00
2017-09-19T08:04:04.082Z,2.73
2017-09-19T08:06:30.496Z,2.43
2017-09-19T08:08:57.486Z,2.23
2017-09-19T08:11:24.353Z,2.33
2017-09-19T08:13:50.663Z,2.40
2017-09-19T08:16:16.879Z,2.30
2017-09-19T08:18:44.131Z,2.30
2017-09-19T08:21:10.492Z,2.20
2017-09-19T08:23:36.748Z,2.50
2017-09-19T08:26:03.003Z,1.87
2017-09-19T08:28:29.236Z,1.80
2017-09-19T08:30:56.260Z,1.37
2017-09-19T08:33:22.572Z,1.80
2017-09-19T08:35:48.804Z,2.67
2017-09-19T08:38:15.177Z,1.80
2017-09-19T08:40:41.424Z,1.53
2017-09-19T08:43:07.759Z,1.50
2017-09-19T08:45:34.092Z,1.97
2017-09-19T08:48:00.328Z,1.50
2017-09-19T08:50:26.507Z,1.63
2017-09-19T08:52:53.616Z,1.53
2017-09-19T08:55:19.867Z,1.47
2017-09-19T08:57:46.192Z,1.60
2017-09-19T09:00:12.508Z,1.30
2017-09-19T09:02:38.805Z,1.27
2017-09-19T09:05:05.051Z,1.10
2017-09-19T09:07:31.384Z,1.40
2017-09-19T09:09:57.710Z,1.37
2017-09-19T09:12:24.040Z,1.10
2017-09-19T09:14:50.363Z,1.13
2017-09-19T09:17:16.642Z,1.20
2017-09-19T09:19:42.857Z,1.70
2017-09-19T09:22:09.147Z,1.43
2017-09-19T09:24:35.461Z,1.30
2017-09-19T09:27:02.435Z,1.60
2017-09-19T09:29:28.735Z,1.63
2017-09-19T09:31:54.994Z,1.70
2017-09-19T09:34:21.252Z,1.40
2017-09-19T09:36:47.525Z,1.90
2017-09-19T09:39:14.548Z,1.70
2017-09-19T09:41:40.816Z,1.90
2017-09-19T09:44:07.834Z,1.90
2017-09-19T09:46:34.296Z,1.90
2017-09-19T09:49:00.553Z,1.63
2017-09-19T09:51:26.931Z,1.43
2017-09-19T09:53:53.168Z,1.40
2017-09-19T09:56:20.179Z,1.40
2017-09-19T09:58:46.511Z,1.23
2017-09-19T10:01:12.879Z,1.47
2017-09-19T10:03:39.881Z,1.40
2017-09-19T10:06:06.222Z,1.53
2017-09-19T10:08:32.521Z,1.60
2017-09-19T10:10:58.851Z,1.90
2017-09-19T10:13:25.101Z,1.57
2017-09-19T10:15:51.331Z,1.30
2017-09-19T10:18:17.616Z,1.80
2017-09-19T10:20:44.893Z,1.67
2017-09-19T10:23:11.168Z,1.30
2017-09-19T10:25:37.545Z,1.77
2017-09-19T10:28:04.516Z,1.90
2017-09-19T10:30:30.702Z,1.43
2017-09-19T10:32:57.761Z,1.47
2017-09-19T10:35:24.045Z,1.60
2017-09-19T10:37:50.368Z,1.33
2017-09-19T10:40:16.565Z,1.10
2017-09-19T10:42:42.890Z,1.60
2017-09-19T10:45:10.094Z,1.40
2017-09-19T10:47:36.453Z,0.93
2017-09-19T10:50:03.625Z,1.30
2017-09-19T10:52:30.108Z,1.30
2017-09-19T10:54:56.379Z,1.50
2017-09-19T10:57:23.328Z,1.20
2017-09-19T10:59:49.689Z,1.30
2017-09-19T11:02:15.950Z,1.63
2017-09-19T11:04:42.312Z,1.93
2017-09-19T11:07:09.337Z,1.50
2017-09-19T11:09:36.289Z,1.30
2017-09-19T11:12:02.566Z,1.47
2017-09-19T11:14:28.817Z,1.37
2017-09-19T11:16:55.044Z,1.50
2017-09-19T11:19:21.370Z,1.40
2017-09-19T11:21:47.780Z,1.07
2017-09-19T11:24:14.187Z,1.27
2017-09-19T11:26:40.600Z,1.10
2017-09-19T11:29:06.939Z,0.90
2017-09-19T11:31:33.272Z,1.03
2017-09-19T11:33:59.600Z,1.30
2017-09-19T11:36:25.962Z,1.30
2017-09-19T11:38:52.268Z,1.10
2017-09-19T11:41:18.474Z,1.00
2017-09-19T11:43:44.987Z,0.80
2017-09-19T11:46:11.349Z,0.90
2017-09-19T11:48:37.539Z,1.00
2017-09-19T11:51:03.807Z,0.73
2017-09-19T11:53:30.059Z,0.50
2017-09-19T11:55:56.387Z,0.70
2017-09-19T11:58:23.368Z,0.60
2017-09-19T12:00:50.493Z,0.70
2017-09-19T12:03:16.819Z,0.70
2017-09-19T12:05:43.032Z,0.70
2017-09-19T12:08:09.407Z,0.60
2017-09-19T12:10:36.356Z,0.97
2017-09-19T12:13:02.575Z,1.53
2017-09-19T12:15:28.918Z,1.00
2017-09-19T12:17:55.188Z,1.10
2017-09-19T12:20:21.548Z,0.90
2017-09-19T12:22:48.489Z,1.13
2017-09-19T12:25:14.870Z,1.10
2017-09-19T12:27:41.722Z,1.23
2017-09-19T12:30:07.919Z,1.30
2017-09-19T12:32:34.926Z,1.40
2017-09-19T12:35:01.222Z,1.00
2017-09-19T12:37:27.408Z,1.10
2017-09-19T12:39:53.694Z,2.10
2017-09-19T12:42:20.133Z,1.13
2017-09-19T12:44:46.473Z,1.30
2017-09-19T12:47:12.835Z,1.10
2017-09-19T12:49:39.094Z,1.30
2017-09-19T12:52:05.276Z,1.57
2017-09-19T12:54:31.413Z,1.30
2017-09-19T12:56:57.633Z,2.03
2017-09-19T12:59:23.915Z,1.80
2017-09-19T13:01:50.182Z,1.60
2017-09-19T13:04:16.501Z,11.20
2017-09-19T13:06:42.640Z,21.80
2017-09-19T13:09:08.901Z,5.57
2017-09-19T13:11:35.997Z,2.73
2017-09-19T13:14:02.159Z,4.60
2017-09-19T13:16:28.428Z,3.37
2017-09-19T13:18:55.650Z,11.90
2017-09-19T13:21:21.920Z,2.27
2017-09-19T13:23:48.081Z,7.27
2017-09-19T13:26:14.536Z,3.40
2017-09-19T13:28:40.747Z,2.50
2017-09-19T13:31:19.098Z,1.90
2017-09-19T13:33:50.046Z,1.77
2017-09-19T13:36:17.027Z,2.30
2017-09-19T13:38:43.189Z,4.87
2017-09-19T13:41:09.417Z,1.80
2017-09-19T13:43:35.728Z,1.60
2017-09-19T13:46:02.005Z,2.00
2017-09-19T13:48:28.171Z,2.60
2017-09-19T13:50:54.364Z,2.30
2017-09-19T13:53:21.320Z,3.10
2017-09-19T13:55:47.487Z,2.20
2017-09-19T13:58:13.657Z,2.30
2017-09-19T14:00:40.614Z,1.70
2017-09-19T14:03:07.653Z,2.00
2017-09-19T14:05:34.600Z,5.80
2017-09-19T14:08:02.251Z,4.70
2017-09-19T14:10:29.284Z,11.00
2017-09-19T14:12:55.459Z,4.80
2017-09-19T14:15:21.751Z,4.00
2017-09-19T14:17:47.984Z,14.53
2017-09-19T14:20:14.042Z,2.07
2017-09-19T14:22:40.256Z,7.30
2017-09-19T14:25:07.209Z,3.17
2017-09-19T14:27:33.452Z,3.17
2017-09-19T14:29:59.575Z,2.00
2017-09-19T14:32:25.914Z,1.20
2017-09-19T14:34:52.016Z,1.60
2017-09-19T14:37:18.874Z,5.17
2017-09-19T14:39:45.036Z,1.07
2017-09-19T14:42:11.389Z,0.77
2017-09-19T14:44:37.769Z,2.10
2017-09-19T14:47:03.942Z,2.73
2017-09-19T14:49:30.207Z,2.40
2017-09-19T14:51:57.277Z,2.70
2017-09-19T14:54:23.512Z,1.70
2017-09-19T14:56:49.748Z,1.00
2017-09-19T14:59:16.149Z,1.03
2017-09-19T15:01:43.056Z,1.33
2017-09-19T15:04:09.324Z,1.77
2017-09-19T15:06:36.345Z,1.00
2017-09-19T15:09:02.457Z,1.00
2017-09-19T15:11:28.655Z,0.77
2017-09-19T15:13:54.873Z,1.20
2017-09-19T15:16:21.237Z,1.60
2017-09-19T15:18:48.083Z,1.93
2017-09-19T15:21:14.193Z,1.60
2017-09-19T15:23:40.540Z,0.80
2017-09-19T15:26:06.796Z,0.97
2017-09-19T15:28:32.968Z,1.37
2017-09-19T15:30:59.211Z,1.17
2017-09-19T15:33:25.319Z,0.70
2017-09-19T15:35:51.837Z,1.93
2017-09-19T15:38:18.008Z,1.40
2017-09-19T15:40:44.220Z,1.03
2017-09-19T15:43:10.371Z,1.30
2017-09-19T15:45:36.583Z,2.97
2017-09-19T15:48:02.769Z,2.30
2017-09-19T15:50:29.627Z,1.40
2017-09-19T15:52:56.610Z,1.23
2017-09-19T15:55:22.902Z,1.00
2017-09-19T15:57:49.722Z,1.10
2017-09-19T16:00:15.921Z,1.53
2017-09-19T16:02:42.337Z,1.87
2017-09-19T16:05:08.700Z,3.27
2017-09-19T16:07:34.876Z,1.60
2017-09-19T16:10:01.038Z,1.07
2017-09-19T16:12:27.205Z,1.00
2017-09-19T16:14:54.184Z,1.00
2017-09-19T16:17:20.478Z,1.13
2017-09-19T16:19:47.360Z,1.20
2017-09-19T16:22:13.558Z,1.53
2017-09-19T16:24:40.549Z,1.80
2017-09-19T16:27:06.806Z,4.50
2017-09-19T16:29:32.990Z,2.10
2017-09-19T16:31:59.193Z,1.60
2017-09-19T16:34:26.067Z,2.20
2017-09-19T16:36:52.380Z,2.40
2017-09-19T16:39:18.540Z,4.30
2017-09-19T16:41:44.782Z,2.00
2017-09-19T16:44:11.893Z,1.57
2017-09-19T16:46:38.403Z,2.00
2017-09-19T16:49:04.643Z,2.17
2017-09-19T16:51:31.629Z,2.23
2017-09-19T16:53:58.373Z,2.30
2017-09-19T16:56:24.550Z,2.23
2017-09-19T16:58:51.487Z,2.07
2017-09-19T17:01:17.682Z,2.20
2017-09-19T17:03:43.908Z,2.30
2017-09-19T17:06:10.178Z,2.40
2017-09-19T17:08:37.095Z,2.60
2017-09-19T17:11:04.040Z,2.50
2017-09-19T17:13:30.250Z,3.00
2017-09-19T17:15:56.372Z,2.70
2017-09-19T17:18:22.624Z,3.13
2017-09-19T17:20:48.806Z,2.60
2017-09-19T17:23:15.755Z,3.20
2017-09-19T17:25:42.222Z,3.30
2017-09-19T17:28:08.379Z,3.50
2017-09-19T17:30:34.538Z,3.10
2017-09-19T17:33:01.425Z,2.80
2017-09-19T17:35:31.289Z,3.17
2017-09-19T17:37:58.291Z,3.20
2017-09-19T17:40:24.458Z,3.77
2017-09-19T17:42:51.748Z,3.40
2017-09-19T17:45:17.910Z,3.57
2017-09-19T17:47:44.105Z,3.50
2017-09-19T17:50:10.198Z,2.90
2017-09-19T17:52:37.073Z,3.50
2017-09-19T17:55:03.236Z,3.90
2017-09-19T17:57:29.421Z,3.70
2017-09-19T17:59:55.612Z,2.93
2017-09-19T18:02:21.735Z,3.17
2017-09-19T18:04:48.663Z,2.77
2017-09-19T18:07:14.867Z,2.87
2017-09-19T18:09:41.235Z,3.63
2017-09-19T18:12:07.478Z,4.20
2017-09-19T18:14:34.578Z,6.43
2017-09-19T18:17:00.829Z,3.30
2017-09-19T18:19:27.076Z,3.67
2017-09-19T18:21:53.359Z,3.20
2017-09-19T18:24:19.583Z,3.20
2017-09-19T18:26:45.820Z,3.30
2017-09-19T18:29:12.001Z,3.40
2017-09-19T18:31:38.179Z,2.90
2017-09-19T18:34:04.422Z,3.07
2017-09-19T18:36:30.611Z,3.37
2017-09-19T18:38:56.737Z,3.10
2017-09-19T18:41:23.031Z,3.30
2017-09-19T18:43:49.330Z,3.90
2017-09-19T18:46:15.625Z,4.10
2017-09-19T18:48:42.618Z,5.20
2017-09-19T18:51:08.878Z,14.20
2017-09-19T18:53:35.907Z,31.17
2017-09-19T18:56:02.104Z,29.70
2017-09-19T18:58:28.398Z,39.63
2017-09-19T19:00:55.358Z,21.57
2017-09-19T19:03:21.687Z,5.70
2017-09-19T19:05:48.824Z,5.57
2017-09-19T19:08:15.726Z,4.90
2017-09-19T19:10:42.086Z,6.50
2017-09-19T19:13:08.249Z,6.10
2017-09-19T19:15:34.426Z,5.30
2017-09-19T19:18:01.151Z,4.67
2017-09-19T19:20:27.329Z,4.20
2017-09-19T19:22:53.505Z,4.20
2017-09-19T19:25:20.661Z,4.47
2017-09-19T19:27:46.857Z,4.30
2017-09-19T19:30:13.067Z,4.17
2017-09-19T19:32:39.316Z,3.80
2017-09-19T19:35:05.504Z,4.57
2017-09-19T19:37:31.656Z,5.20
2017-09-19T19:39:58.577Z,5.20
2017-09-19T19:42:24.817Z,5.53
2017-09-19T19:44:51.807Z,5.30
2017-09-19T19:47:18.113Z,5.33
2017-09-19T19:49:44.329Z,5.10
2017-09-19T19:52:11.338Z,9.67
2017-09-19T19:54:37.536Z,4.67
2017-09-19T19:57:04.060Z,4.67
2017-09-19T19:59:31.047Z,7.00
2017-09-19T20:01:57.264Z,6.27
2017-09-19T20:04:23.497Z,11.53
2017-09-19T20:06:50.057Z,12.80
2017-09-19T20:09:16.216Z,15.63
2017-09-19T20:11:43.214Z,16.50
2017-09-19T20:14:09.427Z,6.67
2017-09-19T20:16:35.627Z,6.17
2017-09-19T20:19:01.885Z,6.97
2017-09-19T20:21:28.087Z,5.83
2017-09-19T20:23:55.199Z,6.03
2017-09-19T20:26:21.518Z,5.70
2017-09-19T20:28:47.746Z,6.50
2017-09-19T20:31:14.012Z,5.47
2017-09-19T20:33:40.896Z,5.20
2017-09-19T20:36:07.074Z,5.10
2017-09-19T20:38:34.011Z,5.37
2017-09-19T20:41:00.949Z,5.27
2017-09-19T20:43:27.114Z,5.70
2017-09-19T20:45:53.305Z,5.70
2017-09-19T20:48:19.481Z,5.70
2017-09-19T20:50:45.719Z,6.37
2017-09-19T20:53:12.142Z,6.20
2017-09-19T20:55:38.712Z,6.00
2017-09-19T20:58:04.943Z,5.57
2017-09-19T21:00:31.121Z,6.57
2017-09-19T21:02:57.327Z,8.13
2017-09-19T21:05:30.369Z,7.30
2017-09-19T21:08:03.058Z,7.07
2017-09-19T21:10:35.280Z,7.90
2017-09-19T21:13:08.340Z,8.20
2017-09-19T21:15:40.568Z,6.50
2017-09-19T21:18:12.850Z,7.10
2017-09-19T21:20:39.618Z,6.70
2017-09-19T21:23:06.396Z,5.80
2017-09-19T21:25:34.586Z,6.27
2017-09-19T21:28:01.606Z,5.97
2017-09-19T21:30:29.639Z,6.07
2017-09-19T21:32:55.815Z,5.70
2017-09-19T21:35:22.780Z,19.20
2017-09-19T21:37:50.091Z,52.23
2017-09-19T21:40:16.346Z,47.90
2017-09-19T21:42:42.701Z,27.60
2017-09-19T21:45:09.002Z,27.73
2017-09-19T21:47:36.039Z,26.63
2017-09-19T21:50:02.433Z,19.37
2017-09-19T21:52:28.923Z,16.90
2017-09-19T21:54:55.810Z,12.97
2017-09-19T21:57:22.107Z,13.10
2017-09-19T21:59:48.947Z,14.37
2017-09-19T22:02:15.903Z,15.20
2017-09-19T22:04:42.075Z,18.27
2017-09-19T22:07:08.325Z,13.70
2017-09-19T22:09:35.362Z,13.23
2017-09-19T22:12:02.452Z,12.93
2017-09-19T22:14:28.706Z,9.90
2017-09-19T22:16:54.841Z,10.30
2017-09-19T22:19:21.358Z,11.20
2017-09-19T22:21:47.556Z,9.20
2017-09-19T22:24:14.608Z,7.87
2017-09-19T22:26:41.599Z,7.63
2017-09-19T22:29:07.729Z,8.53
2017-09-19T22:31:33.910Z,9.27
2017-09-19T22:34:00.815Z,8.30
2017-09-19T22:36:26.962Z,9.17
2017-09-19T22:38:53.208Z,8.03
2017-09-19T22:41:20.230Z,7.60
2017-09-19T22:43:46.337Z,8.77
2017-09-19T22:46:12.540Z,7.83
2017-09-19T22:48:38.726Z,8.80
2017-09-19T22:51:04.935Z,7.50
2017-09-19T22:53:31.147Z,8.53
2017-09-19T22:55:57.330Z,9.27
2017-09-19T22:58:24.282Z,12.90
2017-09-19T23:00:51.147Z,24.10
2017-09-19T23:03:17.317Z,31.27
2017-09-19T23:05:43.465Z,37.17
2017-09-19T23:08:10.471Z,25.30
2017-09-19T23:10:36.612Z,26.70
2017-09-19T23:13:02.783Z,19.63
2017-09-19T23:15:29.699Z,16.47
2017-09-19T23:17:55.995Z,15.63
2017-09-19T23:20:22.185Z,17.73
2017-09-19T23:22:49.056Z,21.60
2017-09-19T23:25:15.611Z,20.60
2017-09-19T23:27:41.788Z,16.43
2017-09-19T23:30:08.636Z,16.10
2017-09-19T23:32:35.520Z,15.30
2017-09-19T23:35:01.781Z,14.83
2017-09-19T23:37:28.071Z,12.27
2017-09-19T23:39:54.190Z,12.00
2017-09-19T23:42:20.314Z,11.50
2017-09-19T23:44:46.484Z,12.90
2017-09-19T23:47:12.617Z,12.73
2017-09-19T23:49:38.812Z,13.00
2017-09-19T23:52:04.970Z,13.47
2017-09-19T23:54:31.177Z,13.13
2017-09-19T23:56:57.344Z,14.20
2017-09-19T23:59:24.205Z,13.60
